KRCZ

Richmond County Airport

Rockingham, North Carolina, USA
METAR KRCZ 201640Z AUTO 28009KT 10SM BKN025 OVC034 22/18 A2992 RMK AO2 T02170182
Observed Flight Rules
Oct-20 @ 16:40 UTC (39 minutes ago) Marginal Visual Flight Rules
Wind Visibility Clouds
280° at 9 knots 10 miles
  • Broken at 2,500' AGL
  • Overcast at 3,400' AGL
Temperatures Readings
Current 22°C / 72°F
Dewpoint 18°C / 64°F
Humidity 78%
Altimeter 29.92" Hg
Pressure 1013 hPa
Elevation 109
METAR KRCZ 201640Z AUTO 28009KT 10SM BKN025 OVC034 22/18 A2992 RMK AO2 T02170182
Observed Flight Rules
Oct-20 @ 16:40 UTC
(39 minutes ago)
MVFR
Wind Visibility
280° at 9 knots 10 miles
Clouds
  • Broken at 2,500' AGL
  • Overcast at 3,400' AGL
Temperature Dewpoint
22°C / 72°F 18°C / 64°F
Humidity Altimeter Pressure
78% 29.92" Hg 1013 hPa